createdAt,value
2019-05-16T00:00:01.365Z,2.47
2019-05-16T00:02:33.923Z,2.50
2019-05-16T00:05:08.370Z,2.90
2019-05-16T00:07:42.660Z,2.37
2019-05-16T00:10:18.719Z,2.62
2019-05-16T00:12:51.878Z,2.77
2019-05-16T00:15:24.560Z,2.42
2019-05-16T00:17:58.653Z,2.75
2019-05-16T00:20:33.120Z,2.33
2019-05-16T00:23:07.789Z,2.15
2019-05-16T00:25:39.755Z,2.42
2019-05-16T00:28:11.973Z,2.73
2019-05-16T00:30:44.097Z,1.75
2019-05-16T00:33:18.390Z,2.20
2019-05-16T00:36:02.153Z,2.40
2019-05-16T00:38:27.612Z,2.52
2019-05-16T00:40:59.876Z,2.70
2019-05-16T00:43:32.250Z,2.55
2019-05-16T00:46:04.632Z,2.50
2019-05-16T00:48:38.182Z,2.12
2019-05-16T00:51:11.365Z,2.80
2019-05-16T00:53:43.826Z,2.80
2019-05-16T00:56:18.624Z,2.27
2019-05-16T00:58:51.979Z,2.52
2019-05-16T01:01:24.377Z,2.60
2019-05-16T01:03:58.505Z,2.50
2019-05-16T01:06:30.500Z,2.22
2019-05-16T01:09:02.880Z,2.33
2019-05-16T01:11:38.039Z,2.67
2019-05-16T01:14:10.015Z,2.77
2019-05-16T01:16:42.319Z,2.52
2019-05-16T01:19:14.737Z,2.70
2019-05-16T01:21:48.359Z,2.92
2019-05-16T01:24:22.152Z,2.50
2019-05-16T01:26:57.780Z,2.35
2019-05-16T01:29:30.823Z,2.05
2019-05-16T01:32:03.227Z,2.72
2019-05-16T01:34:37.808Z,2.40
2019-05-16T01:37:10.268Z,2.05
2019-05-16T01:39:43.026Z,2.05
2019-05-16T01:42:18.283Z,2.20
2019-05-16T01:44:51.158Z,2.37
2019-05-16T01:47:24.311Z,2.42
2019-05-16T01:49:58.042Z,2.55
2019-05-16T01:52:30.853Z,2.35
2019-05-16T01:55:03.787Z,2.45
2019-05-16T01:57:35.844Z,2.22
2019-05-16T02:00:09.459Z,2.12
2019-05-16T02:02:42.381Z,2.40
2019-05-16T02:05:14.438Z,1.85
2019-05-16T02:07:48.022Z,1.77
2019-05-16T02:10:21.322Z,2.33
2019-05-16T02:12:54.088Z,2.45
2019-05-16T02:15:28.510Z,1.90
2019-05-16T02:18:01.203Z,2.05
2019-05-16T02:20:33.725Z,1.90
2019-05-16T02:23:08.077Z,1.75
2019-05-16T02:25:40.940Z,1.82
2019-05-16T02:28:13.886Z,1.57
2019-05-16T02:30:46.538Z,1.72
2019-05-16T02:33:21.309Z,1.85
2019-05-16T02:35:55.807Z,1.98
2019-05-16T02:38:31.501Z,2.15
2019-05-16T02:41:03.392Z,2.17
2019-05-16T02:43:36.168Z,2.40
2019-05-16T02:46:11.897Z,3.50
2019-05-16T02:48:43.874Z,3.67
2019-05-16T02:51:16.039Z,2.85
2019-05-16T02:53:50.998Z,1.95
2019-05-16T02:56:23.294Z,2.25
2019-05-16T02:58:55.967Z,1.87
2019-05-16T03:01:31.507Z,1.72
2019-05-16T03:04:03.190Z,1.85
2019-05-16T03:06:41.033Z,1.50
2019-05-16T03:09:13.309Z,2.10
2019-05-16T03:11:46.736Z,1.55
2019-05-16T03:14:21.697Z,1.82
2019-05-16T03:16:57.208Z,2.02
2019-05-16T03:19:33.007Z,1.70
2019-05-16T03:22:07.750Z,1.47
2019-05-16T03:24:42.067Z,2.15
2019-05-16T03:27:15.091Z,2.00
2019-05-16T03:29:50.479Z,1.62
2019-05-16T03:32:24.094Z,1.50
2019-05-16T03:34:56.325Z,2.00
2019-05-16T03:37:30.738Z,1.83
2019-05-16T03:40:03.134Z,1.60
2019-05-16T03:42:36.261Z,1.67
2019-05-16T03:47:42.758Z,2.00
2019-05-16T03:50:15.517Z,1.40
2019-05-16T03:52:50.802Z,1.62
2019-05-16T03:55:23.783Z,1.55
2019-05-16T03:57:56.756Z,1.82
2019-05-16T04:00:53.054Z,1.52
2019-05-16T04:03:28.425Z,1.95
2019-05-16T04:06:01.163Z,1.60
2019-05-16T04:08:34.353Z,2.02
2019-05-16T04:11:07.184Z,2.65
2019-05-16T04:13:41.169Z,1.35
2019-05-16T04:16:13.936Z,1.52
2019-05-16T04:18:46.710Z,1.70
2019-05-16T04:21:21.917Z,1.55
2019-05-16T04:23:53.147Z,1.70
2019-05-16T04:26:25.794Z,1.52
2019-05-16T04:29:00.781Z,1.80
2019-05-16T04:31:33.409Z,1.72
2019-05-16T04:34:05.803Z,1.65
2019-05-16T04:36:40.549Z,1.85
2019-05-16T04:39:12.892Z,1.75
2019-05-16T04:41:45.274Z,2.02
2019-05-16T04:44:21.062Z,1.70
2019-05-16T04:46:54.289Z,1.75
2019-05-16T04:49:26.895Z,1.47
2019-05-16T04:52:00.586Z,1.72
2019-05-16T04:54:41.876Z,1.72
2019-05-16T04:57:13.544Z,1.72
2019-05-16T04:59:46.017Z,1.72
2019-05-16T05:02:21.079Z,1.50
2019-05-16T05:04:52.153Z,1.50
2019-05-16T05:07:25.527Z,1.75
2019-05-16T05:10:00.405Z,1.45
2019-05-16T05:12:32.378Z,1.85
2019-05-16T05:15:05.200Z,1.60
2019-05-16T05:17:40.917Z,1.47
2019-05-16T05:20:12.552Z,1.35
2019-05-16T05:22:45.211Z,1.98
2019-05-16T05:25:20.240Z,1.62
2019-05-16T05:27:52.303Z,1.80
2019-05-16T05:30:24.587Z,1.95
2019-05-16T05:32:56.891Z,1.63
2019-05-16T05:35:31.090Z,1.75
2019-05-16T05:38:04.339Z,2.10
2019-05-16T05:40:36.503Z,1.50
2019-05-16T05:43:10.555Z,1.85
2019-05-16T05:45:43.025Z,1.70
2019-05-16T05:48:16.221Z,1.70
2019-05-16T05:50:50.671Z,1.35
2019-05-16T05:53:23.761Z,1.42
2019-05-16T05:58:30.502Z,1.35
2019-05-16T06:01:02.037Z,1.60
2019-05-16T06:03:34.556Z,1.47
2019-05-16T06:06:07.368Z,1.80
2019-05-16T06:08:41.019Z,1.72
2019-05-16T06:11:14.311Z,1.42
2019-05-16T06:13:46.803Z,1.50
2019-05-16T06:16:20.474Z,1.30
2019-05-16T06:18:56.712Z,1.65
2019-05-16T06:21:33.092Z,1.50
2019-05-16T06:24:03.236Z,1.30
2019-05-16T06:26:35.856Z,1.45
2019-05-16T06:29:10.489Z,2.05
2019-05-16T06:31:43.036Z,1.57
2019-05-16T06:34:15.538Z,2.00
2019-05-16T06:36:47.862Z,1.40
2019-05-16T06:39:20.311Z,1.52
2019-05-16T06:41:53.001Z,1.65
2019-05-16T06:44:25.684Z,2.65
2019-05-16T06:47:12.618Z,1.47
2019-05-16T06:49:32.852Z,1.45
2019-05-16T06:52:19.740Z,2.37
2019-05-16T06:54:56.482Z,1.40
2019-05-16T06:57:30.156Z,1.40
2019-05-16T07:00:03.245Z,1.50
2019-05-16T07:02:35.989Z,1.42
2019-05-16T07:05:10.176Z,1.80
2019-05-16T07:07:46.401Z,1.35
2019-05-16T07:10:20.576Z,1.60
2019-05-16T07:12:53.212Z,2.35
2019-05-16T07:15:25.295Z,1.90
2019-05-16T07:17:59.726Z,1.47
2019-05-16T07:20:32.786Z,1.50
2019-05-16T07:23:07.391Z,1.60
2019-05-16T07:25:43.071Z,1.67
2019-05-16T07:28:15.976Z,1.92
2019-05-16T07:30:50.055Z,1.70
2019-05-16T07:33:22.426Z,1.40
2019-05-16T07:35:55.177Z,1.22
2019-05-16T07:38:27.976Z,1.62
2019-05-16T07:41:00.366Z,1.45
2019-05-16T07:43:32.799Z,1.57
2019-05-16T07:46:05.216Z,1.50
2019-05-16T07:48:40.385Z,1.17
2019-05-16T07:51:12.551Z,1.55
2019-05-16T07:53:44.946Z,1.47
2019-05-16T07:56:17.303Z,1.77
2019-05-16T07:58:50.867Z,1.32
2019-05-16T08:01:23.387Z,1.70
2019-05-16T08:04:00.086Z,1.73
2019-05-16T08:06:34.142Z,2.00
2019-05-16T08:09:12.028Z,1.60
2019-05-16T08:11:43.980Z,1.52
2019-05-16T08:14:16.665Z,2.05
2019-05-16T08:16:51.719Z,1.37
2019-05-16T08:19:25.448Z,1.30
2019-05-16T08:21:58.207Z,2.00
2019-05-16T08:24:36.054Z,1.55
2019-05-16T08:27:06.674Z,1.45
2019-05-16T08:29:40.402Z,1.22
2019-05-16T08:32:13.878Z,1.47
2019-05-16T08:39:51.444Z,1.60
2019-05-16T08:42:23.867Z,1.37
2019-05-16T08:45:01.167Z,2.10
2019-05-16T08:47:32.437Z,1.75
2019-05-16T08:50:12.677Z,1.57
2019-05-16T08:52:43.455Z,1.42
2019-05-16T08:55:16.713Z,1.65
2019-05-16T08:57:53.036Z,1.70
2019-05-16T09:00:26.472Z,1.12
2019-05-16T09:03:01.774Z,1.90
2019-05-16T09:05:34.522Z,1.60
2019-05-16T09:08:09.027Z,1.50
2019-05-16T09:10:28.429Z,1.40
2019-05-16T09:10:55.772Z,1.70
2019-05-16T09:13:20.259Z,1.32
2019-05-16T09:18:23.642Z,1.20
2019-05-16T09:20:57.831Z,1.57
2019-05-16T09:23:31.407Z,1.95
